Time;durP1;ratioP1;P1;durP2;ratioP2;P2;SDS_P1;SDS_P2;PMS_P1;PMS_P2;Temp;Humidity;BMP_temperature;BMP_pressure;BME280_temperature;BME280_humidity;BME280_pressure;Samples;Min_cycle;Max_cycle;Signal;HPM_P1;HPM_P2
2022/12/21 00:01:31;;;;;;;24.95;16.40;;;8.80;99.90;;;;;;5044590;28;20650;-77
2022/12/21 00:04:00;;;;;;;21.63;15.77;;;8.70;99.90;;;;;;5038405;28;20233;-77
2022/12/21 00:06:29;;;;;;;23.85;15.73;;;8.70;99.90;;;;;;5054689;28;20251;-76
2022/12/21 00:09:00;;;;;;;24.23;17.38;;;8.70;99.90;;;;;;5046559;28;20333;-77
2022/12/21 00:11:29;;;;;;;25.10;17.40;;;8.70;99.90;;;;;;5035611;28;20643;-77
2022/12/21 00:14:00;;;;;;;25.35;15.85;;;8.70;99.90;;;;;;5034634;28;20252;-75
2022/12/21 00:16:29;;;;;;;21.20;16.00;;;8.70;99.90;;;;;;5033809;28;20221;-76
2022/12/21 00:18:57;;;;;;;25.38;15.93;;;8.70;99.90;;;;;;5051406;28;20234;-76
2022/12/21 00:21:26;;;;;;;20.45;16.27;;;8.70;99.90;;;;;;5055517;28;20576;-77
2022/12/21 00:23:58;;;;;;;23.20;16.42;;;8.60;99.90;;;;;;5027319;28;20221;-77
2022/12/21 00:26:28;;;;;;;23.33;16.25;;;8.60;99.90;;;;;;5035158;28;20225;-78
2022/12/21 00:28:56;;;;;;;23.85;16.52;;;8.60;99.90;;;;;;5050704;28;20252;-77
2022/12/21 00:31:26;;;;;;;20.55;16.02;;;8.60;99.90;;;;;;5052317;28;20798;-76
2022/12/21 00:33:56;;;;;;;24.83;16.75;;;8.60;99.90;;;;;;5050968;28;20260;-76
2022/12/21 00:36:32;;;;;;;20.60;14.85;;;8.50;99.90;;;;;;5034700;28;20226;-77
2022/12/21 00:38:59;;;;;;;21.98;16.30;;;8.50;99.90;;;;;;5035598;28;20674;-76
2022/12/21 00:41:34;;;;;;;25.80;18.02;;;8.50;99.90;;;;;;5053841;28;20339;-77
2022/12/21 00:44:01;;;;;;;23.27;16.55;;;8.50;99.90;;;;;;5050080;28;20542;-77
2022/12/21 00:46:33;;;;;;;20.40;16.00;;;8.40;99.90;;;;;;5033762;28;20222;-78
2022/12/21 00:49:07;;;;;;;21.67;15.93;;;8.40;99.90;;;;;;5030509;28;20312;-76
2022/12/21 00:51:37;;;;;;;18.42;15.60;;;8.40;99.90;;;;;;5042744;28;21132;-77
2022/12/21 00:54:05;;;;;;;21.88;16.13;;;8.40;99.90;;;;;;5034937;28;20279;-78
2022/12/21 00:56:34;;;;;;;22.60;16.08;;;8.40;99.90;;;;;;5040748;28;20235;-78
2022/12/21 00:59:03;;;;;;;22.95;16.80;;;8.40;99.90;;;;;;5074309;28;20601;-77
2022/12/21 01:01:32;;;;;;;23.55;16.38;;;8.40;99.90;;;;;;5073566;28;20341;-77
2022/12/21 01:04:00;;;;;;;24.30;16.10;;;8.40;99.90;;;;;;5048735;28;20541;-77
2022/12/21 01:06:29;;;;;;;21.42;15.02;;;8.40;99.90;;;;;;5051148;28;20278;-77
2022/12/21 01:09:07;;;;;;;21.73;14.57;;;8.40;99.90;;;;;;5043053;28;20221;-77
2022/12/21 01:11:35;;;;;;;24.27;17.17;;;8.40;99.90;;;;;;5033455;28;20221;-77
2022/12/21 01:14:02;;;;;;;25.08;16.25;;;8.40;99.90;;;;;;5034325;28;20236;-77
2022/12/21 01:16:32;;;;;;;21.67;16.23;;;8.40;99.90;;;;;;5033084;28;20233;-78
2022/12/21 01:19:02;;;;;;;23.63;15.40;;;8.40;99.90;;;;;;5034502;28;20221;-78
2022/12/21 01:21:31;;;;;;;28.42;17.10;;;8.40;99.90;;;;;;5022919;28;20259;-78
2022/12/21 01:24:00;;;;;;;22.23;16.73;;;8.40;99.90;;;;;;5035312;28;20295;-77
2022/12/21 01:26:28;;;;;;;23.08;16.42;;;8.40;99.90;;;;;;5052905;28;20246;-77
2022/12/21 01:28:57;;;;;;;24.50;16.23;;;8.40;99.90;;;;;;5052791;28;20279;-78
2022/12/21 01:31:24;;;;;;;30.70;18.95;;;8.40;99.90;;;;;;5052236;28;20243;-77
2022/12/21 01:33:52;;;;;;;35.28;20.88;;;8.40;99.90;;;;;;5053158;28;20224;-78
2022/12/21 01:36:20;;;;;;;25.48;18.50;;;8.40;99.90;;;;;;5051919;28;20221;-75
2022/12/21 01:38:48;;;;;;;24.25;17.17;;;8.40;99.90;;;;;;5051662;28;20247;-75
2022/12/21 01:41:17;;;;;;;23.30;16.05;;;8.50;99.90;;;;;;5051529;28;20228;-75
2022/12/21 01:43:49;;;;;;;24.15;16.95;;;8.50;99.90;;;;;;5051060;28;20224;-76
2022/12/21 01:46:27;;;;;;;21.27;14.98;;;8.50;99.90;;;;;;5053681;28;20220;-76
2022/12/21 01:49:03;;;;;;;21.38;14.77;;;8.50;99.90;;;;;;5049189;28;20221;-76
2022/12/21 01:51:32;;;;;;;23.20;16.63;;;8.50;99.90;;;;;;5053422;28;20240;-77
2022/12/21 01:54:02;;;;;;;20.15;14.30;;;8.50;99.90;;;;;;5043830;28;20244;-76
2022/12/21 01:56:33;;;;;;;23.77;15.27;;;8.50;99.90;;;;;;5053454;28;20319;-76
2022/12/21 01:59:08;;;;;;;26.45;16.23;;;8.50;99.90;;;;;;5053375;28;20239;-76
2022/12/21 02:01:37;;;;;;;30.20;20.08;;;8.50;99.90;;;;;;5054071;28;20259;-76
2022/12/21 02:04:05;;;;;;;21.77;16.35;;;8.50;99.90;;;;;;5057641;28;20221;-76
2022/12/21 02:06:36;;;;;;;20.75;14.85;;;8.50;99.90;;;;;;5052601;28;20316;-77
2022/12/21 02:09:04;;;;;;;23.02;15.57;;;8.50;99.90;;;;;;5021557;28;20296;-76
2022/12/21 02:11:32;;;;;;;26.52;17.00;;;8.50;99.90;;;;;;5037256;28;20233;-77
2022/12/21 02:13:59;;;;;;;24.48;16.80;;;8.50;99.90;;;;;;5032837;28;20308;-77
2022/12/21 02:16:31;;;;;;;23.75;17.83;;;8.50;99.90;;;;;;5032962;28;20626;-76
2022/12/21 02:19:28;;;;;;;25.00;17.70;;;8.50;99.90;;;;;;5049617;28;20310;-77
2022/12/21 02:22:00;;;;;;;21.17;16.05;;;8.50;99.90;;;;;;5073029;28;20216;-77
2022/12/21 02:24:55;;;;;;;23.77;16.55;;;8.50;99.90;;;;;;5055050;28;20236;-77
2022/12/21 02:27:56;;;;;;;27.40;19.27;;;8.50;99.90;;;;;;5052838;28;20259;-78
2022/12/21 02:30:24;;;;;;;26.23;17.25;;;8.50;99.90;;;;;;5052915;28;20242;-77
2022/12/21 02:33:05;;;;;;;27.05;18.13;;;8.40;99.90;;;;;;5053636;28;20671;-77
2022/12/21 02:35:55;;;;;;;22.15;16.30;;;8.50;99.90;;;;;;5051795;28;20239;-78
2022/12/21 02:38:35;;;;;;;25.63;19.02;;;8.40;99.90;;;;;;5051950;28;20316;-77
2022/12/21 02:41:09;;;;;;;22.42;15.27;;;8.40;99.90;;;;;;5052382;28;20224;-77
2022/12/21 02:46:38;;;;;;;21.58;15.43;;;8.40;99.90;;;;;;5052177;28;20542;-76
2022/12/21 02:49:10;;;;;;;24.95;16.52;;;8.30;99.90;;;;;;5052556;28;20237;-76
2022/12/21 02:51:42;;;;;;;23.52;16.92;;;8.30;99.90;;;;;;5051672;28;20236;-75
2022/12/21 02:54:11;;;;;;;22.17;16.90;;;8.30;99.90;;;;;;5052290;28;20742;-76
2022/12/21 02:56:40;;;;;;;23.48;16.45;;;8.30;99.90;;;;;;5052252;28;20255;-76
2022/12/21 02:59:10;;;;;;;23.50;16.60;;;8.30;99.90;;;;;;5052780;28;20229;-76
2022/12/21 03:01:56;;;;;;;27.73;19.65;;;8.40;99.90;;;;;;5052471;28;20232;-76
2022/12/21 03:04:37;;;;;;;23.55;15.00;;;8.20;99.90;;;;;;5051887;28;20586;-76
2022/12/21 03:07:32;;;;;;;27.42;15.23;;;8.20;99.90;;;;;;5052378;28;20299;-76
2022/12/21 03:10:06;;;;;;;22.67;16.30;;;8.20;99.90;;;;;;5052401;28;20299;-77
2022/12/21 03:12:47;;;;;;;24.17;16.45;;;8.30;99.90;;;;;;5051297;28;20303;-77
2022/12/21 03:15:20;;;;;;;26.20;18.65;;;8.30;99.90;;;;;;5048309;28;20263;-76
2022/12/21 03:17:55;;;;;;;20.35;16.52;;;8.30;99.90;;;;;;5051515;28;20225;-76
2022/12/21 03:20:29;;;;;;;25.92;17.27;;;8.40;99.90;;;;;;5050735;28;20710;-76
2022/12/21 03:23:01;;;;;;;22.50;17.65;;;8.30;99.90;;;;;;5051919;28;20225;-76
2022/12/21 03:25:34;;;;;;;27.73;18.35;;;8.30;99.90;;;;;;5052202;28;20246;-76
2022/12/21 03:28:05;;;;;;;25.90;17.90;;;8.30;99.90;;;;;;5052438;28;20290;-76
2022/12/21 03:30:38;;;;;;;23.63;16.25;;;8.30;99.90;;;;;;5051711;28;20255;-76
2022/12/21 03:33:09;;;;;;;29.60;18.52;;;8.30;99.90;;;;;;5052645;28;20224;-77
2022/12/21 03:35:44;;;;;;;24.55;16.90;;;8.30;99.90;;;;;;5052517;28;20232;-76
2022/12/21 03:38:16;;;;;;;27.73;17.80;;;8.40;99.90;;;;;;5052070;28;20307;-75
2022/12/21 03:40:47;;;;;;;28.17;18.58;;;8.40;99.90;;;;;;5056113;28;20643;-76
2022/12/21 03:43:19;;;;;;;26.77;18.10;;;8.30;99.90;;;;;;5056494;28;20303;-76
2022/12/21 03:45:51;;;;;;;30.50;17.75;;;8.40;99.90;;;;;;5055144;28;20304;-76
2022/12/21 03:48:23;;;;;;;23.92;17.05;;;8.30;99.90;;;;;;5055436;28;20216;-76
2022/12/21 03:50:55;;;;;;;24.90;18.00;;;8.40;99.90;;;;;;5055458;28;20227;-75
2022/12/21 03:53:31;;;;;;;30.02;17.95;;;8.40;99.90;;;;;;5055879;28;20282;-76
2022/12/21 03:56:03;;;;;;;27.75;18.40;;;8.30;99.90;;;;;;5055048;28;20584;-76
2022/12/21 03:58:31;;;;;;;27.33;17.35;;;8.30;99.90;;;;;;5054545;28;20232;-76
2022/12/21 04:01:12;;;;;;;23.88;17.55;;;8.30;99.90;;;;;;5054159;28;20410;-77
2022/12/21 04:03:42;;;;;;;25.42;17.48;;;8.30;99.90;;;;;;5055237;28;20224;-76
2022/12/21 04:06:16;;;;;;;29.38;18.10;;;8.30;99.90;;;;;;5056013;28;20546;-76
2022/12/21 04:08:43;;;;;;;32.83;19.75;;;8.30;99.90;;;;;;5054994;28;20721;-75
2022/12/21 04:12:36;;;;;;;27.02;17.90;;;8.30;99.90;;;;;;5055707;28;20308;-76
2022/12/21 04:13:58;;;;;;;30.98;19.65;;;8.30;99.90;;;;;;5055001;28;20584;-76
2022/12/21 04:16:25;;;;;;;24.70;17.60;;;8.20;99.90;;;;;;5055701;28;20675;-76
2022/12/21 04:21:38;;;;;;;26.08;18.27;;;8.20;99.90;;;;;;5055072;28;20634;-77
2022/12/21 04:29:34;;;;;;;28.02;18.33;;;8.20;99.90;;;;;;5054313;28;20243;-76
2022/12/21 04:32:01;;;;;;;29.63;18.85;;;8.20;99.90;;;;;;5054730;28;20300;-76
2022/12/21 04:34:28;;;;;;;27.90;18.55;;;8.20;99.90;;;;;;5055649;28;20220;-76
2022/12/21 04:39:41;;;;;;;30.40;20.15;;;8.20;99.90;;;;;;5054613;28;20765;-75
2022/12/21 04:42:08;;;;;;;29.33;18.42;;;8.20;99.90;;;;;;5055333;28;20244;-76
2022/12/21 04:44:34;;;;;;;28.17;18.23;;;8.20;99.90;;;;;;5055165;28;20224;-76
2022/12/21 04:47:02;;;;;;;32.78;19.67;;;8.20;99.90;;;;;;5054282;28;20219;-75
2022/12/21 04:49:28;;;;;;;28.45;19.17;;;8.20;99.90;;;;;;5054433;28;20670;-75
2022/12/21 04:51:57;;;;;;;30.92;21.67;;;8.20;99.90;;;;;;5042640;28;20312;-76
2022/12/21 04:54:24;;;;;;;27.08;21.45;;;8.20;99.90;;;;;;5054293;28;20623;-75
2022/12/21 04:56:51;;;;;;;29.27;18.60;;;8.20;99.90;;;;;;5052805;28;20228;-75
2022/12/21 04:59:18;;;;;;;24.92;18.40;;;8.20;99.90;;;;;;5054726;28;20274;-76
2022/12/21 05:01:45;;;;;;;31.40;18.48;;;8.30;99.90;;;;;;5054519;28;20307;-77
2022/12/21 05:04:12;;;;;;;27.88;19.48;;;8.30;99.90;;;;;;5054858;28;20235;-77
2022/12/21 05:06:39;;;;;;;31.02;19.35;;;8.20;99.90;;;;;;5054946;28;20542;-76
2022/12/21 05:09:08;;;;;;;28.40;19.55;;;8.20;99.90;;;;;;5053823;28;20220;-76
2022/12/21 05:11:35;;;;;;;25.77;17.35;;;8.20;99.90;;;;;;5054835;28;20301;-76
2022/12/21 05:14:02;;;;;;;30.45;19.75;;;8.30;99.90;;;;;;5070243;28;20221;-77
2022/12/21 05:16:29;;;;;;;24.30;17.23;;;8.20;99.90;;;;;;5072920;28;20248;-77
2022/12/21 05:18:56;;;;;;;25.20;18.17;;;8.30;99.90;;;;;;5069529;28;20239;-77
2022/12/21 05:21:24;;;;;;;23.42;17.15;;;8.30;99.90;;;;;;5069697;28;20220;-77
2022/12/21 05:23:51;;;;;;;32.20;20.33;;;8.30;99.90;;;;;;5069953;28;20224;-75
2022/12/21 05:26:19;;;;;;;28.70;20.13;;;8.30;99.90;;;;;;5069208;28;20326;-76
2022/12/21 05:28:47;;;;;;;30.33;18.70;;;8.30;99.90;;;;;;5069559;28;20225;-77
2022/12/21 05:31:16;;;;;;;28.95;19.55;;;8.30;99.90;;;;;;5061544;28;20229;-77
2022/12/21 05:33:43;;;;;;;31.58;20.88;;;8.30;99.90;;;;;;5054496;28;20229;-78
2022/12/21 05:36:14;;;;;;;29.90;18.88;;;8.30;99.90;;;;;;5053940;28;20248;-77
2022/12/21 05:38:41;;;;;;;23.10;17.50;;;8.30;99.90;;;;;;5044652;28;20662;-77
2022/12/21 05:41:09;;;;;;;27.30;18.50;;;8.30;99.90;;;;;;5054027;28;20229;-77
2022/12/21 05:43:38;;;;;;;29.05;20.33;;;8.40;99.90;;;;;;5053640;28;20693;-75
2022/12/21 05:46:08;;;;;;;25.73;19.75;;;8.40;99.90;;;;;;5053560;28;20225;-76
2022/12/21 05:48:35;;;;;;;25.45;19.00;;;8.40;99.90;;;;;;5054363;28;20224;-76
2022/12/21 05:51:07;;;;;;;25.00;17.23;;;8.40;99.90;;;;;;5053075;28;20312;-76
2022/12/21 05:53:34;;;;;;;29.35;19.65;;;8.40;99.90;;;;;;5053975;28;20237;-76
2022/12/21 05:56:01;;;;;;;27.25;18.05;;;8.40;99.90;;;;;;5053035;28;20516;-75
2022/12/21 05:58:28;;;;;;;31.02;21.25;;;8.40;99.90;;;;;;5053742;28;20262;-75
2022/12/21 06:00:59;;;;;;;29.27;18.92;;;8.30;99.90;;;;;;5053517;28;20229;-76
2022/12/21 06:03:26;;;;;;;25.10;17.75;;;8.30;99.90;;;;;;5053561;28;20620;-76
2022/12/21 06:05:53;;;;;;;24.70;17.90;;;8.40;99.90;;;;;;5053284;28;20312;-76
2022/12/21 06:08:25;;;;;;;30.65;21.20;;;8.40;99.90;;;;;;5053771;28;20652;-76
2022/12/21 06:10:54;;;;;;;25.05;19.98;;;8.40;99.90;;;;;;5053424;28;20225;-77
2022/12/21 06:13:21;;;;;;;24.83;18.40;;;8.40;99.90;;;;;;5053899;28;20727;-76
2022/12/21 06:15:48;;;;;;;24.15;18.33;;;8.50;99.90;;;;;;5053660;28;20309;-76
2022/12/21 06:18:16;;;;;;;24.13;17.92;;;8.50;99.90;;;;;;5052837;28;20232;-76
2022/12/21 06:20:50;;;;;;;30.75;20.90;;;8.50;99.90;;;;;;5053763;28;20229;-76
2022/12/21 06:23:18;;;;;;;28.58;19.15;;;8.60;99.90;;;;;;5052403;28;20247;-76
2022/12/21 06:25:45;;;;;;;25.95;18.95;;;8.60;99.90;;;;;;5053705;28;20232;-76
2022/12/21 06:28:12;;;;;;;26.55;18.73;;;8.60;99.90;;;;;;5052911;28;20220;-76
2022/12/21 06:30:39;;;;;;;28.20;20.65;;;8.60;99.90;;;;;;5053563;28;20598;-76
2022/12/21 06:33:05;;;;;;;24.63;18.30;;;8.60;99.90;;;;;;5052806;28;20278;-77
2022/12/21 06:35:34;;;;;;;30.63;20.27;;;8.60;99.90;;;;;;5052193;28;20221;-76
2022/12/21 06:38:06;;;;;;;26.58;17.33;;;8.60;99.90;;;;;;5052486;28;20238;-77
2022/12/21 06:40:33;;;;;;;26.80;19.35;;;8.70;99.90;;;;;;5053118;28;20228;-77
2022/12/21 06:43:00;;;;;;;25.33;19.27;;;8.70;99.90;;;;;;5052991;28;20248;-78
2022/12/21 06:45:27;;;;;;;25.88;17.10;;;8.70;99.90;;;;;;5053691;28;20224;-78
2022/12/21 06:47:54;;;;;;;29.13;20.58;;;8.70;99.90;;;;;;5053367;28;20236;-78
2022/12/21 06:50:21;;;;;;;29.00;20.67;;;8.80;99.90;;;;;;5052553;28;20248;-78
2022/12/21 06:52:50;;;;;;;28.88;20.63;;;8.70;99.90;;;;;;5053088;28;20225;-77
2022/12/21 06:55:17;;;;;;;22.15;19.13;;;8.80;99.90;;;;;;5052863;28;20298;-78
2022/12/21 06:57:44;;;;;;;25.73;18.50;;;8.80;99.90;;;;;;5053014;28;20259;-78
2022/12/21 07:00:13;;;;;;;28.92;18.52;;;8.80;99.90;;;;;;5052557;28;20319;-78
2022/12/21 07:02:41;;;;;;;24.75;18.30;;;8.80;99.90;;;;;;5052606;28;20262;-77
2022/12/21 07:05:09;;;;;;;23.98;18.45;;;8.80;99.90;;;;;;5052529;28;20286;-77
2022/12/21 07:07:36;;;;;;;28.10;20.77;;;8.80;99.90;;;;;;5052126;28;20224;-76
2022/12/21 07:10:04;;;;;;;25.02;20.13;;;8.80;99.90;;;;;;5041359;28;20332;-77
2022/12/21 07:12:31;;;;;;;28.85;19.27;;;8.80;99.90;;;;;;5051356;28;20276;-77
2022/12/21 07:14:58;;;;;;;30.35;20.58;;;8.80;99.90;;;;;;5042745;28;20220;-78
2022/12/21 07:17:26;;;;;;;23.17;18.52;;;8.80;99.90;;;;;;5051579;28;20221;-77
2022/12/21 07:19:53;;;;;;;26.08;20.33;;;8.80;99.90;;;;;;5050429;28;20247;-77
2022/12/21 07:22:20;;;;;;;27.30;19.65;;;8.80;99.90;;;;;;5051547;28;20235;-77
2022/12/21 07:24:46;;;;;;;29.55;20.08;;;8.80;99.90;;;;;;5052222;28;20407;-77
2022/12/21 07:27:15;;;;;;;30.75;20.70;;;8.80;99.90;;;;;;5051481;28;20307;-78
2022/12/21 07:29:41;;;;;;;25.50;18.85;;;8.80;99.90;;;;;;5051854;28;20236;-76
2022/12/21 07:32:09;;;;;;;33.05;19.63;;;8.80;99.90;;;;;;5051420;28;20234;-76
2022/12/21 07:34:36;;;;;;;27.70;19.92;;;8.80;99.90;;;;;;5051988;28;20224;-77
2022/12/21 07:37:03;;;;;;;25.88;21.25;;;8.90;99.90;;;;;;5052114;28;20297;-77
2022/12/21 07:39:30;;;;;;;27.85;20.70;;;8.90;99.90;;;;;;5051545;28;20236;-77
2022/12/21 07:41:57;;;;;;;23.85;20.73;;;8.90;99.90;;;;;;5051883;28;20228;-77
2022/12/21 07:44:25;;;;;;;35.88;23.25;;;8.90;99.90;;;;;;5051635;28;20224;-77
2022/12/21 07:46:52;;;;;;;29.25;22.63;;;8.90;99.90;;;;;;5052168;28;20312;-77
2022/12/21 07:49:19;;;;;;;31.55;19.98;;;8.90;99.90;;;;;;5051078;28;20279;-77
2022/12/21 07:51:46;;;;;;;24.77;20.75;;;8.90;99.90;;;;;;5052244;28;20259;-77
2022/12/21 07:54:14;;;;;;;27.52;19.63;;;9.00;99.90;;;;;;5032370;28;20255;-77
2022/12/21 07:56:41;;;;;;;33.45;23.65;;;9.00;99.90;;;;;;5051580;28;20286;-77
2022/12/21 07:59:08;;;;;;;28.33;21.42;;;9.00;99.90;;;;;;5052026;28;20599;-77
2022/12/21 08:01:36;;;;;;;30.95;20.30;;;9.00;99.90;;;;;;5051495;28;20389;-75
2022/12/21 08:04:03;;;;;;;30.48;20.15;;;9.00;99.90;;;;;;5039733;28;20267;-75
2022/12/21 08:06:30;;;;;;;30.10;21.35;;;9.00;99.90;;;;;;5051301;28;20316;-75
2022/12/21 08:09:01;;;;;;;26.92;19.63;;;9.00;99.90;;;;;;5051665;28;20252;-76
2022/12/21 08:11:30;;;;;;;28.38;20.23;;;9.00;99.90;;;;;;5038358;28;20573;-76
2022/12/21 08:13:57;;;;;;;29.15;21.10;;;9.10;99.90;;;;;;5052674;28;20624;-76
2022/12/21 08:16:24;;;;;;;24.75;18.15;;;9.00;99.90;;;;;;5051586;28;20251;-75
2022/12/21 08:18:55;;;;;;;26.38;19.05;;;9.10;99.90;;;;;;5051459;28;20316;-76
2022/12/21 08:21:22;;;;;;;28.02;20.73;;;9.20;99.90;;;;;;5051245;28;20240;-75
2022/12/21 08:23:49;;;;;;;27.48;20.00;;;9.20;99.90;;;;;;5051646;28;20228;-76
2022/12/21 08:26:17;;;;;;;26.42;20.95;;;9.20;99.90;;;;;;5052941;28;20632;-76
2022/12/21 08:28:44;;;;;;;22.25;17.88;;;9.30;99.90;;;;;;5055604;28;20304;-76
2022/12/21 08:31:13;;;;;;;32.50;22.02;;;9.30;99.90;;;;;;5053662;28;20333;-76
2022/12/21 08:33:43;;;;;;;26.80;19.58;;;9.30;99.90;;;;;;5055306;28;20323;-77
2022/12/21 08:36:13;;;;;;;25.52;20.60;;;9.30;99.90;;;;;;5054839;28;20569;-77
2022/12/21 08:38:40;;;;;;;27.73;21.40;;;9.30;99.90;;;;;;5054830;28;20274;-78
2022/12/21 08:41:08;;;;;;;24.77;20.33;;;9.30;99.90;;;;;;5054371;28;20308;-78
2022/12/21 08:43:36;;;;;;;25.98;20.13;;;9.30;99.90;;;;;;5055496;28;20233;-78
2022/12/21 08:46:04;;;;;;;26.60;18.60;;;9.30;99.90;;;;;;5055229;28;20259;-78
2022/12/21 08:48:31;;;;;;;23.02;17.67;;;9.40;99.90;;;;;;5054556;28;20224;-78
2022/12/21 08:50:59;;;;;;;25.25;19.83;;;9.40;99.90;;;;;;5055019;28;20319;-77
2022/12/21 08:53:28;;;;;;;29.10;20.45;;;9.40;99.90;;;;;;5054360;28;20290;-77
2022/12/21 08:55:56;;;;;;;31.85;24.27;;;9.40;99.90;;;;;;5054891;28;20236;-78
2022/12/21 08:58:25;;;;;;;31.52;23.90;;;9.40;99.90;;;;;;5053335;28;20244;-77
2022/12/21 09:00:52;;;;;;;32.05;23.95;;;9.50;99.90;;;;;;5054646;28;20621;-77
2022/12/21 09:03:19;;;;;;;29.38;21.75;;;9.40;99.90;;;;;;5054394;28;20220;-77
2022/12/21 09:05:53;;;;;;;26.27;20.98;;;9.50;99.90;;;;;;5054610;28;20605;-76
2022/12/21 09:08:20;;;;;;;28.10;21.48;;;9.50;99.90;;;;;;5053862;28;20248;-76
2022/12/21 09:10:59;;;;;;;25.30;19.88;;;9.40;99.90;;;;;;5054744;28;20668;-77
2022/12/21 09:13:26;;;;;;;25.83;19.25;;;9.40;99.90;;;;;;5043167;28;20220;-78
2022/12/21 09:15:53;;;;;;;23.20;19.90;;;9.40;99.90;;;;;;5054848;28;20579;-76
2022/12/21 09:18:20;;;;;;;25.77;19.05;;;9.50;99.90;;;;;;5053794;28;20603;-76
2022/12/21 09:20:47;;;;;;;19.48;17.25;;;9.50;99.90;;;;;;5054614;28;20240;-77
2022/12/21 09:23:15;;;;;;;23.05;18.80;;;9.50;99.90;;;;;;5053543;28;20255;-77
2022/12/21 09:25:43;;;;;;;28.48;19.88;;;9.50;99.90;;;;;;5053673;28;20303;-76
2022/12/21 09:28:11;;;;;;;31.08;19.55;;;9.50;99.90;;;;;;5052767;28;20216;-76
2022/12/21 09:31:02;;;;;;;24.15;19.45;;;9.50;99.90;;;;;;5043453;28;20226;-76
2022/12/21 09:33:29;;;;;;;26.42;19.08;;;9.50;99.90;;;;;;5052942;28;20257;-76
2022/12/21 09:35:56;;;;;;;25.83;19.55;;;9.60;99.90;;;;;;5041071;28;20589;-76
2022/12/21 09:38:23;;;;;;;26.25;18.38;;;9.50;99.90;;;;;;5052856;28;20304;-76
2022/12/21 09:40:51;;;;;;;25.92;20.67;;;9.50;99.90;;;;;;5043327;28;20315;-76
2022/12/21 09:43:27;;;;;;;24.20;19.20;;;9.60;99.90;;;;;;5053044;28;20303;-76
2022/12/21 09:46:05;;;;;;;22.30;17.40;;;9.60;99.90;;;;;;5053384;28;20235;-76
2022/12/21 09:48:39;;;;;;;23.23;18.73;;;9.60;99.90;;;;;;5053916;28;20307;-76
2022/12/21 09:51:12;;;;;;;24.05;17.70;;;9.60;99.90;;;;;;5053560;28;20224;-76
2022/12/21 09:53:45;;;;;;;27.95;18.30;;;9.60;99.90;;;;;;5052512;28;20349;-76
2022/12/21 09:56:17;;;;;;;30.85;22.63;;;9.70;99.90;;;;;;5044783;28;20240;-76
2022/12/21 09:58:48;;;;;;;28.63;19.50;;;9.70;99.90;;;;;;5053029;28;20347;-76
2022/12/21 10:01:21;;;;;;;23.15;18.75;;;9.70;99.90;;;;;;5053598;28;20666;-76
2022/12/21 10:04:12;;;;;;;21.48;18.38;;;9.70;99.90;;;;;;5053071;28;20235;-76
2022/12/21 10:06:59;;;;;;;22.95;16.80;;;9.80;99.90;;;;;;5042759;28;20232;-76
2022/12/21 10:09:43;;;;;;;24.33;19.70;;;9.80;99.90;;;;;;5052454;28;20225;-76
2022/12/21 10:12:23;;;;;;;26.30;18.58;;;9.80;99.90;;;;;;5043111;28;20266;-76
2022/12/21 10:15:04;;;;;;;20.85;16.45;;;9.80;99.90;;;;;;5042287;28;20682;-76
2022/12/21 10:17:45;;;;;;;19.77;15.73;;;9.90;99.90;;;;;;5052196;28;20220;-76
2022/12/21 10:20:27;;;;;;;21.13;18.02;;;9.90;99.90;;;;;;5052433;28;20323;-76
2022/12/21 10:22:59;;;;;;;23.40;18.88;;;9.90;99.90;;;;;;5053094;28;20220;-76
2022/12/21 10:25:38;;;;;;;23.25;18.33;;;9.90;99.90;;;;;;5051902;28;20243;-75
2022/12/21 10:28:20;;;;;;;21.17;17.38;;;9.90;99.90;;;;;;5052400;28;20553;-76
2022/12/21 10:30:55;;;;;;;23.15;17.98;;;9.90;99.90;;;;;;5050358;28;20303;-78
2022/12/21 10:33:22;;;;;;;23.95;18.42;;;9.90;99.90;;;;;;5053224;28;20217;-76
2022/12/21 10:35:57;;;;;;;21.25;17.38;;;9.90;99.90;;;;;;5052547;28;20227;-77
2022/12/21 10:38:30;;;;;;;19.50;16.83;;;9.90;99.90;;;;;;5052428;28;20224;-76
2022/12/21 10:40:57;;;;;;;19.60;17.33;;;9.90;99.90;;;;;;5052150;28;20312;-77
2022/12/21 10:43:24;;;;;;;21.45;17.33;;;9.90;99.90;;;;;;5051815;28;20683;-76
2022/12/21 10:45:52;;;;;;;21.88;18.13;;;9.90;99.90;;;;;;5052503;28;20610;-78
2022/12/21 10:48:22;;;;;;;18.58;15.88;;;9.90;99.90;;;;;;5040574;28;20255;-79
2022/12/21 10:50:53;;;;;;;18.45;16.35;;;10.00;99.90;;;;;;5030736;28;20269;-76
2022/12/21 10:53:25;;;;;;;20.15;15.70;;;10.00;99.90;;;;;;5052153;28;20242;-77
2022/12/21 10:55:55;;;;;;;20.70;16.80;;;10.00;99.90;;;;;;5051303;28;20232;-76
2022/12/21 10:58:29;;;;;;;23.30;17.13;;;10.00;99.90;;;;;;5051277;28;20232;-76
2022/12/21 11:01:02;;;;;;;25.13;18.70;;;10.00;99.90;;;;;;5051261;28;20233;-77
2022/12/21 11:03:31;;;;;;;24.27;19.95;;;10.00;99.90;;;;;;5052905;28;20748;-77
2022/12/21 11:06:11;;;;;;;24.88;17.65;;;10.00;99.90;;;;;;5051935;28;20549;-76
2022/12/21 11:08:46;;;;;;;21.48;16.90;;;9.90;99.90;;;;;;5044656;28;20224;-76
2022/12/21 11:11:29;;;;;;;21.48;17.20;;;9.90;99.90;;;;;;5034418;28;20250;-76
2022/12/21 11:14:01;;;;;;;20.90;17.52;;;10.00;99.90;;;;;;5048694;28;20303;-76
2022/12/21 11:16:31;;;;;;;19.42;17.13;;;10.00;99.90;;;;;;5052405;28;20244;-77
2022/12/21 11:19:02;;;;;;;22.10;16.02;;;10.00;99.90;;;;;;5051637;28;20599;-76
2022/12/21 11:21:40;;;;;;;19.80;17.17;;;10.00;99.90;;;;;;5053115;28;20670;-77
2022/12/21 11:24:13;;;;;;;22.90;19.27;;;10.00;99.90;;;;;;5049499;28;20228;-78
2022/12/21 11:26:46;;;;;;;20.10;16.67;;;10.00;99.90;;;;;;5042477;28;20228;-77
2022/12/21 11:29:27;;;;;;;22.38;17.70;;;10.00;99.90;;;;;;5052054;28;20224;-76
2022/12/21 11:32:02;;;;;;;19.58;15.85;;;10.00;99.90;;;;;;5040495;28;20278;-77
2022/12/21 11:34:36;;;;;;;18.35;15.65;;;10.00;99.90;;;;;;5052536;28;20657;-77
2022/12/21 11:37:06;;;;;;;20.08;16.65;;;10.10;99.90;;;;;;5054318;28;20580;-77
2022/12/21 11:39:35;;;;;;;17.90;15.27;;;10.10;99.90;;;;;;5051563;28;20233;-76
2022/12/21 11:42:02;;;;;;;22.67;17.73;;;10.10;99.90;;;;;;5052874;28;20548;-77
2022/12/21 11:44:31;;;;;;;21.98;18.52;;;10.10;99.90;;;;;;5052657;28;20220;-76
2022/12/21 11:47:32;;;;;;;20.35;15.10;;;10.20;99.90;;;;;;5053660;28;20299;-76
2022/12/21 11:50:22;;;;;;;18.85;16.45;;;10.20;99.90;;;;;;5052654;28;20282;-76
2022/12/21 11:53:24;;;;;;;27.35;20.20;;;10.30;99.90;;;;;;5052361;28;20250;-76
2022/12/21 11:56:05;;;;;;;23.65;18.00;;;10.30;99.90;;;;;;5023442;28;20225;-76
2022/12/21 11:58:47;;;;;;;21.75;17.60;;;10.30;99.90;;;;;;5052531;28;20603;-76
2022/12/21 12:01:33;;;;;;;19.05;16.92;;;10.30;99.90;;;;;;5055840;28;20728;-76
2022/12/21 12:04:18;;;;;;;25.50;18.98;;;10.40;99.90;;;;;;5055421;28;20275;-76
2022/12/21 12:07:11;;;;;;;25.35;19.80;;;10.30;99.90;;;;;;5056647;28;20225;-77
2022/12/21 12:10:05;;;;;;;16.70;14.82;;;10.30;99.90;;;;;;5047838;28;20236;-75
2022/12/21 12:16:29;;;;;;;17.73;15.82;;;10.40;99.90;;;;;;5039142;28;20232;-76
2022/12/21 12:19:14;;;;;;;21.08;18.13;;;10.40;99.90;;;;;;5054639;28;20230;-76
2022/12/21 12:22:14;;;;;;;20.45;17.67;;;10.40;99.90;;;;;;5055180;28;20229;-76
2022/12/21 12:24:58;;;;;;;20.20;17.02;;;10.40;99.90;;;;;;5054893;28;20310;-76
2022/12/21 12:27:42;;;;;;;20.20;16.70;;;10.40;99.90;;;;;;5054782;28;20248;-77
2022/12/21 12:30:11;;;;;;;21.10;17.27;;;10.40;99.90;;;;;;5055162;28;20224;-76
2022/12/21 12:32:55;;;;;;;31.17;26.15;;;10.40;99.90;;;;;;5053100;28;20323;-76
2022/12/21 12:36:05;;;;;;;27.23;20.23;;;10.40;99.90;;;;;;5058867;28;20706;-76
2022/12/21 12:38:43;;;;;;;20.77;16.45;;;10.40;99.90;;;;;;5070893;28;20220;-78
2022/12/21 12:41:34;;;;;;;19.95;16.17;;;10.40;99.90;;;;;;5071228;28;20235;-78
2022/12/21 12:44:05;;;;;;;20.70;18.08;;;10.40;99.90;;;;;;5067366;28;20247;-77
2022/12/21 12:46:47;;;;;;;20.02;16.80;;;10.40;99.90;;;;;;5068557;28;20228;-77
2022/12/21 12:49:26;;;;;;;21.17;16.52;;;10.40;99.90;;;;;;5068324;28;20317;-77
2022/12/21 12:52:04;;;;;;;21.15;16.35;;;10.40;99.90;;;;;;5070767;28;20216;-78
2022/12/21 12:54:41;;;;;;;21.38;17.75;;;10.40;99.90;;;;;;5071352;28;20231;-78
2022/12/21 12:57:15;;;;;;;19.27;16.05;;;10.40;99.90;;;;;;5072234;28;20303;-78
2022/12/21 12:59:51;;;;;;;19.75;16.70;;;10.40;99.90;;;;;;5069404;28;20236;-76
2022/12/21 13:02:31;;;;;;;16.98;14.30;;;10.40;99.90;;;;;;5068526;28;20278;-76
2022/12/21 13:05:10;;;;;;;21.20;17.17;;;10.40;99.90;;;;;;5064374;28;20248;-78
2022/12/21 13:07:48;;;;;;;22.80;16.50;;;10.40;99.90;;;;;;5054250;28;20235;-78
2022/12/21 13:10:25;;;;;;;18.38;15.40;;;10.40;99.90;;;;;;5065837;28;20259;-77
2022/12/21 13:12:59;;;;;;;18.40;16.00;;;10.40;99.90;;;;;;5060697;28;20224;-76
2022/12/21 13:15:35;;;;;;;19.58;16.63;;;10.40;99.90;;;;;;5058623;28;20715;-77
2022/12/21 13:18:07;;;;;;;20.60;17.35;;;10.40;99.90;;;;;;5058330;28;20224;-77